sensor_id;sensor_type;location;lat;lon;timestamp;noise_LAeq;noise_LA_min;noise_LA_max;noise_LA01;noise_LA95
67310;Laerm;65444;51.438;5.982;2023-03-23T00:00:04;32.28;29.21;45.60;;
67310;Laerm;65444;51.438;5.982;2023-03-23T00:00:15;32.67;30.06;40.01;;
67310;Laerm;65444;51.438;5.982;2023-03-23T00:00:26;34.89;31.96;48.19;;
67310;Laerm;65444;51.438;5.982;2023-03-23T00:00:37;33.26;30.58;41.30;;
67310;Laerm;65444;51.438;5.982;2023-03-23T00:00:47;31.74;30.15;34.77;;
67310;Laerm;65444;51.438;5.982;2023-03-23T00:00:58;31.41;29.63;33.91;;
67310;Laerm;65444;51.438;5.982;2023-03-23T00:01:09;31.42;29.95;34.08;;
67310;Laerm;65444;51.438;5.982;2023-03-23T00:01:29;32.47;29.72;42.52;;
67310;Laerm;65444;51.438;5.982;2023-03-23T00:01:41;31.82;30.00;42.03;;
67310;Laerm;65444;51.438;5.982;2023-03-23T00:01:54;39.79;30.43;53.46;;
67310;Laerm;65444;51.438;5.982;2023-03-23T00:02:05;34.99;29.59;50.38;;
67310;Laerm;65444;51.438;5.982;2023-03-23T00:02:15;32.86;30.34;37.90;;
67310;Laerm;65444;51.438;5.982;2023-03-23T00:02:27;35.20;31.47;42.94;;
67310;Laerm;65444;51.438;5.982;2023-03-23T00:02:38;40.49;34.66;49.20;;
67310;Laerm;65444;51.438;5.982;2023-03-23T00:02:49;40.77;33.16;51.92;;
67310;Laerm;65444;51.438;5.982;2023-03-23T00:02:59;39.66;32.24;53.58;;
67310;Laerm;65444;51.438;5.982;2023-03-23T00:03:11;36.50;31.62;48.74;;
67310;Laerm;65444;51.438;5.982;2023-03-23T00:03:22;33.20;30.19;44.08;;
67310;Laerm;65444;51.438;5.982;2023-03-23T00:03:32;34.74;29.89;46.73;;
67310;Laerm;65444;51.438;5.982;2023-03-23T00:03:43;37.48;29.99;54.46;;
67310;Laerm;65444;51.438;5.982;2023-03-23T00:03:53;32.70;30.63;38.98;;
67310;Laerm;65444;51.438;5.982;2023-03-23T00:04:07;33.92;30.89;41.46;;
67310;Laerm;65444;51.438;5.982;2023-03-23T00:04:18;31.77;30.04;34.99;;
67310;Laerm;65444;51.438;5.982;2023-03-23T00:04:28;32.85;30.84;43.16;;
67310;Laerm;65444;51.438;5.982;2023-03-23T00:04:42;31.59;29.77;36.10;;
67310;Laerm;65444;51.438;5.982;2023-03-23T00:04:52;31.05;29.49;33.01;;
67310;Laerm;65444;51.438;5.982;2023-03-23T00:05:04;30.84;29.00;35.56;;
67310;Laerm;65444;51.438;5.982;2023-03-23T00:05:14;31.56;29.28;39.72;;
67310;Laerm;65444;51.438;5.982;2023-03-23T00:05:25;31.23;29.28;36.44;;
67310;Laerm;65444;51.438;5.982;2023-03-23T00:05:35;30.89;28.80;34.21;;
67310;Laerm;65444;51.438;5.982;2023-03-23T00:05:47;32.61;30.07;40.11;;
67310;Laerm;65444;51.438;5.982;2023-03-23T00:06:00;36.44;31.03;51.16;;
67310;Laerm;65444;51.438;5.982;2023-03-23T00:06:18;33.19;30.18;41.17;;
67310;Laerm;65444;51.438;5.982;2023-03-23T00:06:28;34.49;31.34;40.96;;
67310;Laerm;65444;51.438;5.982;2023-03-23T00:06:45;32.85;30.80;41.14;;
67310;Laerm;65444;51.438;5.982;2023-03-23T00:06:55;36.05;30.19;51.31;;
67310;Laerm;65444;51.438;5.982;2023-03-23T00:07:05;31.02;29.31;36.60;;
67310;Laerm;65444;51.438;5.982;2023-03-23T00:07:16;30.22;29.02;33.74;;
67310;Laerm;65444;51.438;5.982;2023-03-23T00:07:31;32.04;28.99;40.52;;
67310;Laerm;65444;51.438;5.982;2023-03-23T00:07:43;30.74;29.07;32.55;;
67310;Laerm;65444;51.438;5.982;2023-03-23T00:07:55;30.62;29.31;32.42;;
67310;Laerm;65444;51.438;5.982;2023-03-23T00:08:06;30.95;29.31;32.53;;
67310;Laerm;65444;51.438;5.982;2023-03-23T00:08:19;38.61;29.38;54.66;;
67310;Laerm;65444;51.438;5.982;2023-03-23T00:08:36;38.63;29.47;51.98;;
67310;Laerm;65444;51.438;5.982;2023-03-23T00:08:48;31.01;29.28;35.41;;
67310;Laerm;65444;51.438;5.982;2023-03-23T00:08:59;30.37;28.32;34.03;;
67310;Laerm;65444;51.438;5.982;2023-03-23T00:09:20;30.75;29.16;33.40;;
67310;Laerm;65444;51.438;5.982;2023-03-23T00:09:33;33.15;29.70;39.13;;
67310;Laerm;65444;51.438;5.982;2023-03-23T00:09:51;32.11;29.49;40.43;;
67310;Laerm;65444;51.438;5.982;2023-03-23T00:10:04;31.67;29.53;39.57;;
67310;Laerm;65444;51.438;5.982;2023-03-23T00:10:14;30.84;29.65;32.08;;
67310;Laerm;65444;51.438;5.982;2023-03-23T00:10:25;30.74;29.32;34.60;;
67310;Laerm;65444;51.438;5.982;2023-03-23T00:10:36;30.74;28.81;32.03;;
67310;Laerm;65444;51.438;5.982;2023-03-23T00:10:47;32.26;29.26;39.14;;
67310;Laerm;65444;51.438;5.982;2023-03-23T00:10:58;33.62;31.20;45.05;;
67310;Laerm;65444;51.438;5.982;2023-03-23T00:11:14;34.51;30.65;40.98;;
67310;Laerm;65444;51.438;5.982;2023-03-23T00:11:26;40.72;34.23;52.36;;
67310;Laerm;65444;51.438;5.982;2023-03-23T00:11:41;41.29;31.82;58.76;;
67310;Laerm;65444;51.438;5.982;2023-03-23T00:11:52;35.62;31.83;49.35;;
67310;Laerm;65444;51.438;5.982;2023-03-23T00:12:07;32.80;31.13;36.41;;
67310;Laerm;65444;51.438;5.982;2023-03-23T00:12:19;36.96;32.95;43.68;;
67310;Laerm;65444;51.438;5.982;2023-03-23T00:12:30;34.27;31.52;38.06;;
67310;Laerm;65444;51.438;5.982;2023-03-23T00:12:44;38.57;31.78;44.86;;
67310;Laerm;65444;51.438;5.982;2023-03-23T00:12:55;42.39;38.69;46.97;;
67310;Laerm;65444;51.438;5.982;2023-03-23T00:13:07;37.29;33.44;40.24;;
67310;Laerm;65444;51.438;5.982;2023-03-23T00:13:18;35.55;33.56;39.68;;
67310;Laerm;65444;51.438;5.982;2023-03-23T00:13:30;35.86;33.60;40.52;;
67310;Laerm;65444;51.438;5.982;2023-03-23T00:13:41;34.85;33.19;38.22;;
67310;Laerm;65444;51.438;5.982;2023-03-23T00:13:51;36.84;32.91;48.70;;
67310;Laerm;65444;51.438;5.982;2023-03-23T00:14:02;38.83;32.21;53.78;;
67310;Laerm;65444;51.438;5.982;2023-03-23T00:14:12;37.46;33.64;47.44;;
67310;Laerm;65444;51.438;5.982;2023-03-23T00:14:23;34.42;31.58;38.94;;
67310;Laerm;65444;51.438;5.982;2023-03-23T00:14:35;36.05;31.25;46.40;;
67310;Laerm;65444;51.438;5.982;2023-03-23T00:14:51;40.54;32.31;57.52;;
67310;Laerm;65444;51.438;5.982;2023-03-23T00:15:04;49.22;31.77;68.69;;
67310;Laerm;65444;51.438;5.982;2023-03-23T00:15:15;36.35;32.59;42.73;;
67310;Laerm;65444;51.438;5.982;2023-03-23T00:15:27;36.45;31.84;52.59;;
67310;Laerm;65444;51.438;5.982;2023-03-23T00:15:40;35.54;31.21;46.11;;
67310;Laerm;65444;51.438;5.982;2023-03-23T00:15:51;36.41;31.48;50.60;;
67310;Laerm;65444;51.438;5.982;2023-03-23T00:16:02;34.19;31.52;40.08;;
67310;Laerm;65444;51.438;5.982;2023-03-23T00:16:13;32.35;30.64;35.19;;
67310;Laerm;65444;51.438;5.982;2023-03-23T00:16:30;33.01;29.51;45.17;;
67310;Laerm;65444;51.438;5.982;2023-03-23T00:16:47;35.92;30.71;45.98;;
67310;Laerm;65444;51.438;5.982;2023-03-23T00:16:59;32.72;30.31;35.10;;
67310;Laerm;65444;51.438;5.982;2023-03-23T00:17:09;34.45;29.85;50.49;;
67310;Laerm;65444;51.438;5.982;2023-03-23T00:17:22;31.97;30.12;36.29;;
67310;Laerm;65444;51.438;5.982;2023-03-23T00:17:33;39.78;30.83;56.81;;
67310;Laerm;65444;51.438;5.982;2023-03-23T00:17:44;45.04;31.48;57.76;;
67310;Laerm;65444;51.438;5.982;2023-03-23T00:18:01;33.53;31.01;39.75;;
67310;Laerm;65444;51.438;5.982;2023-03-23T00:18:12;34.01;30.52;44.35;;
67310;Laerm;65444;51.438;5.982;2023-03-23T00:18:46;32.84;29.87;44.42;;
67310;Laerm;65444;51.438;5.982;2023-03-23T00:18:58;31.67;29.44;38.01;;
67310;Laerm;65444;51.438;5.982;2023-03-23T00:19:11;32.56;30.61;36.08;;
67310;Laerm;65444;51.438;5.982;2023-03-23T00:19:26;35.36;31.22;43.30;;
67310;Laerm;65444;51.438;5.982;2023-03-23T00:19:37;37.74;33.30;47.61;;
67310;Laerm;65444;51.438;5.982;2023-03-23T00:19:55;37.11;33.59;46.06;;
67310;Laerm;65444;51.438;5.982;2023-03-23T00:20:06;36.15;33.80;39.33;;
67310;Laerm;65444;51.438;5.982;2023-03-23T00:20:17;40.73;33.33;52.19;;
67310;Laerm;65444;51.438;5.982;2023-03-23T00:20:28;36.26;33.98;44.56;;
67310;Laerm;65444;51.438;5.982;2023-03-23T00:20:55;37.45;33.32;49.75;;
67310;Laerm;65444;51.438;5.982;2023-03-23T00:21:06;36.38;33.89;45.88;;
67310;Laerm;65444;51.438;5.982;2023-03-23T00:21:23;37.65;34.32;47.63;;
67310;Laerm;65444;51.438;5.982;2023-03-23T00:21:44;39.02;33.82;54.75;;
67310;Laerm;65444;51.438;5.982;2023-03-23T00:21:55;43.69;34.35;56.39;;
67310;Laerm;65444;51.438;5.982;2023-03-23T00:22:06;36.64;33.11;42.47;;
67310;Laerm;65444;51.438;5.982;2023-03-23T00:22:17;36.03;32.91;40.63;;
67310;Laerm;65444;51.438;5.982;2023-03-23T00:22:29;37.27;33.87;47.99;;
67310;Laerm;65444;51.438;5.982;2023-03-23T00:22:40;36.88;34.79;40.42;;
67310;Laerm;65444;51.438;5.982;2023-03-23T00:22:50;37.78;35.42;41.94;;
67310;Laerm;65444;51.438;5.982;2023-03-23T00:23:01;42.52;35.22;56.04;;
67310;Laerm;65444;51.438;5.982;2023-03-23T00:23:12;38.44;33.64;46.95;;
67310;Laerm;65444;51.438;5.982;2023-03-23T00:23:29;36.00;32.85;45.25;;
67310;Laerm;65444;51.438;5.982;2023-03-23T00:23:39;35.85;33.18;43.76;;
67310;Laerm;65444;51.438;5.982;2023-03-23T00:23:50;36.98;33.53;46.40;;
67310;Laerm;65444;51.438;5.982;2023-03-23T00:24:18;44.07;34.15;57.48;;
67310;Laerm;65444;51.438;5.982;2023-03-23T00:24:28;37.10;34.99;43.20;;
67310;Laerm;65444;51.438;5.982;2023-03-23T00:24:45;36.87;34.39;39.30;;
67310;Laerm;65444;51.438;5.982;2023-03-23T00:24:55;37.81;33.42;41.40;;
67310;Laerm;65444;51.438;5.982;2023-03-23T00:25:06;39.90;32.84;56.25;;
67310;Laerm;65444;51.438;5.982;2023-03-23T00:25:18;35.26;32.61;41.56;;
67310;Laerm;65444;51.438;5.982;2023-03-23T00:25:28;40.87;33.41;52.63;;
67310;Laerm;65444;51.438;5.982;2023-03-23T00:25:45;39.31;31.91;49.80;;
67310;Laerm;65444;51.438;5.982;2023-03-23T00:25:56;44.37;31.52;59.40;;
67310;Laerm;65444;51.438;5.982;2023-03-23T00:26:06;34.19;30.84;46.05;;
67310;Laerm;65444;51.438;5.982;2023-03-23T00:26:17;33.99;30.58;43.96;;
67310;Laerm;65444;51.438;5.982;2023-03-23T00:26:28;34.85;31.77;38.00;;
67310;Laerm;65444;51.438;5.982;2023-03-23T00:26:40;42.43;32.29;55.81;;
67310;Laerm;65444;51.438;5.982;2023-03-23T00:26:51;34.34;30.76;45.24;;
67310;Laerm;65444;51.438;5.982;2023-03-23T00:27:03;41.53;31.45;59.75;;
67310;Laerm;65444;51.438;5.982;2023-03-23T00:27:24;31.94;29.92;37.16;;
67310;Laerm;65444;51.438;5.982;2023-03-23T00:27:34;33.88;28.83;49.25;;
67310;Laerm;65444;51.438;5.982;2023-03-23T00:27:44;44.07;29.72;54.94;;
67310;Laerm;65444;51.438;5.982;2023-03-23T00:28:04;38.27;30.90;52.74;;
67310;Laerm;65444;51.438;5.982;2023-03-23T00:28:15;34.88;29.66;51.02;;
67310;Laerm;65444;51.438;5.982;2023-03-23T00:28:26;31.65;30.05;36.23;;
67310;Laerm;65444;51.438;5.982;2023-03-23T00:28:45;32.74;29.86;39.20;;
67310;Laerm;65444;51.438;5.982;2023-03-23T00:28:56;32.70;30.53;36.63;;
67310;Laerm;65444;51.438;5.982;2023-03-23T00:29:08;31.81;30.04;35.52;;
67310;Laerm;65444;51.438;5.982;2023-03-23T00:29:26;31.08;29.69;34.41;;
67310;Laerm;65444;51.438;5.982;2023-03-23T00:29:37;32.31;29.30;47.86;;
67310;Laerm;65444;51.438;5.982;2023-03-23T00:29:48;32.88;30.33;38.44;;
67310;Laerm;65444;51.438;5.982;2023-03-23T00:30:05;37.20;31.75;49.60;;
67310;Laerm;65444;51.438;5.982;2023-03-23T00:30:15;33.75;31.58;39.22;;
67310;Laerm;65444;51.438;5.982;2023-03-23T00:30:26;34.84;31.54;42.43;;
67310;Laerm;65444;51.438;5.982;2023-03-23T00:30:45;37.14;32.48;42.59;;
67310;Laerm;65444;51.438;5.982;2023-03-23T00:30:59;35.52;31.01;39.58;;
67310;Laerm;65444;51.438;5.982;2023-03-23T00:31:10;35.86;30.84;48.52;;
67310;Laerm;65444;51.438;5.982;2023-03-23T00:31:25;33.69;30.64;43.40;;
67310;Laerm;65444;51.438;5.982;2023-03-23T00:31:41;31.67;29.35;34.02;;
67310;Laerm;65444;51.438;5.982;2023-03-23T00:32:05;33.87;31.14;42.71;;
67310;Laerm;65444;51.438;5.982;2023-03-23T00:32:16;40.70;31.53;55.34;;
67310;Laerm;65444;51.438;5.982;2023-03-23T00:32:27;34.76;31.50;41.97;;
67310;Laerm;65444;51.438;5.982;2023-03-23T00:32:41;37.04;32.28;50.26;;
67310;Laerm;65444;51.438;5.982;2023-03-23T00:32:51;40.86;31.39;54.87;;
67310;Laerm;65444;51.438;5.982;2023-03-23T00:33:02;44.74;31.73;57.55;;
67310;Laerm;65444;51.438;5.982;2023-03-23T00:33:13;37.13;32.77;47.98;;
67310;Laerm;65444;51.438;5.982;2023-03-23T00:33:27;34.74;31.76;43.46;;
67310;Laerm;65444;51.438;5.982;2023-03-23T00:33:39;46.94;32.01;61.45;;
67310;Laerm;65444;51.438;5.982;2023-03-23T00:33:50;44.67;36.30;56.51;;
67310;Laerm;65444;51.438;5.982;2023-03-23T00:34:02;49.65;37.71;67.68;;
67310;Laerm;65444;51.438;5.982;2023-03-23T00:34:15;45.79;34.15;61.97;;
67310;Laerm;65444;51.438;5.982;2023-03-23T00:34:29;36.45;31.73;45.64;;
67310;Laerm;65444;51.438;5.982;2023-03-23T00:34:42;46.93;33.75;58.82;;
67310;Laerm;65444;51.438;5.982;2023-03-23T00:34:56;36.37;31.79;50.21;;
67310;Laerm;65444;51.438;5.982;2023-03-23T00:35:08;32.36;30.53;40.47;;
67310;Laerm;65444;51.438;5.982;2023-03-23T00:35:19;31.94;30.03;35.02;;
67310;Laerm;65444;51.438;5.982;2023-03-23T00:35:30;31.53;29.90;33.07;;
67310;Laerm;65444;51.438;5.982;2023-03-23T00:35:41;40.85;30.49;54.67;;
67310;Laerm;65444;51.438;5.982;2023-03-23T00:35:52;34.45;32.32;36.66;;
67310;Laerm;65444;51.438;5.982;2023-03-23T00:36:03;35.79;31.93;49.58;;
67310;Laerm;65444;51.438;5.982;2023-03-23T00:36:14;37.93;32.21;52.01;;
67310;Laerm;65444;51.438;5.982;2023-03-23T00:36:25;43.57;31.73;55.63;;
67310;Laerm;65444;51.438;5.982;2023-03-23T00:36:37;35.40;32.09;46.60;;
67310;Laerm;65444;51.438;5.982;2023-03-23T00:36:53;37.33;29.61;54.91;;
67310;Laerm;65444;51.438;5.982;2023-03-23T00:37:07;41.55;30.60;56.50;;
67310;Laerm;65444;51.438;5.982;2023-03-23T00:37:17;37.61;33.50;50.56;;
67310;Laerm;65444;51.438;5.982;2023-03-23T00:37:28;40.96;31.75;54.24;;
67310;Laerm;65444;51.438;5.982;2023-03-23T00:37:39;36.37;32.16;40.88;;
67310;Laerm;65444;51.438;5.982;2023-03-23T00:37:51;40.49;32.68;57.61;;
67310;Laerm;65444;51.438;5.982;2023-03-23T00:38:01;43.87;32.80;61.59;;
67310;Laerm;65444;51.438;5.982;2023-03-23T00:38:12;47.72;35.13;64.23;;
67310;Laerm;65444;51.438;5.982;2023-03-23T00:38:23;39.06;34.86;49.07;;
67310;Laerm;65444;51.438;5.982;2023-03-23T00:38:35;45.53;33.08;58.75;;
67310;Laerm;65444;51.438;5.982;2023-03-23T00:38:45;39.96;32.32;55.64;;
67310;Laerm;65444;51.438;5.982;2023-03-23T00:38:58;33.88;30.48;40.03;;
67310;Laerm;65444;51.438;5.982;2023-03-23T00:39:11;39.87;34.79;52.03;;
67310;Laerm;65444;51.438;5.982;2023-03-23T00:39:23;38.19;30.90;52.61;;
67310;Laerm;65444;51.438;5.982;2023-03-23T00:39:35;32.96;31.03;42.43;;
67310;Laerm;65444;51.438;5.982;2023-03-23T00:39:48;39.94;32.20;53.93;;
67310;Laerm;65444;51.438;5.982;2023-03-23T00:40:02;37.58;31.01;52.59;;
67310;Laerm;65444;51.438;5.982;2023-03-23T00:40:22;31.75;29.63;36.98;;
67310;Laerm;65444;51.438;5.982;2023-03-23T00:40:32;32.10;30.13;35.87;;
67310;Laerm;65444;51.438;5.982;2023-03-23T00:40:46;34.31;30.74;45.72;;
67310;Laerm;65444;51.438;5.982;2023-03-23T00:40:57;32.42;30.75;34.46;;
67310;Laerm;65444;51.438;5.982;2023-03-23T00:41:12;32.18;30.36;37.50;;
67310;Laerm;65444;51.438;5.982;2023-03-23T00:41:26;31.43;29.89;35.15;;
67310;Laerm;65444;51.438;5.982;2023-03-23T00:41:39;31.81;29.45;43.85;;
67310;Laerm;65444;51.438;5.982;2023-03-23T00:41:50;31.88;29.94;39.18;;
67310;Laerm;65444;51.438;5.982;2023-03-23T00:42:01;31.38;29.89;34.48;;
67310;Laerm;65444;51.438;5.982;2023-03-23T00:42:14;32.11;30.26;39.95;;
67310;Laerm;65444;51.438;5.982;2023-03-23T00:42:27;31.21;29.46;33.81;;
67310;Laerm;65444;51.438;5.982;2023-03-23T00:42:38;31.51;29.97;33.57;;
67310;Laerm;65444;51.438;5.982;2023-03-23T00:42:49;32.05;30.37;34.82;;
67310;Laerm;65444;51.438;5.982;2023-03-23T00:42:59;32.13;29.31;43.44;;
67310;Laerm;65444;51.438;5.982;2023-03-23T00:43:14;33.02;30.81;35.86;;
67310;Laerm;65444;51.438;5.982;2023-03-23T00:43:26;35.42;31.28;45.48;;
67310;Laerm;65444;51.438;5.982;2023-03-23T00:43:38;33.17;30.89;37.04;;
67310;Laerm;65444;51.438;5.982;2023-03-23T00:43:49;33.33;31.07;35.68;;
67310;Laerm;65444;51.438;5.982;2023-03-23T00:44:01;32.58;30.79;37.71;;
67310;Laerm;65444;51.438;5.982;2023-03-23T00:44:12;32.69;29.78;42.46;;
67310;Laerm;65444;51.438;5.982;2023-03-23T00:44:30;32.40;29.29;49.85;;
67310;Laerm;65444;51.438;5.982;2023-03-23T00:44:41;32.61;30.32;35.75;;
67310;Laerm;65444;51.438;5.982;2023-03-23T00:44:53;33.38;30.70;39.65;;
67310;Laerm;65444;51.438;5.982;2023-03-23T00:45:10;36.19;30.68;48.46;;
67310;Laerm;65444;51.438;5.982;2023-03-23T00:45:21;42.20;30.31;58.12;;
67310;Laerm;65444;51.438;5.982;2023-03-23T00:45:34;31.56;29.58;34.91;;
67310;Laerm;65444;51.438;5.982;2023-03-23T00:46:03;32.42;29.59;35.44;;
67310;Laerm;65444;51.438;5.982;2023-03-23T00:46:18;38.11;30.64;58.77;;
67310;Laerm;65444;51.438;5.982;2023-03-23T00:46:30;34.13;31.38;43.84;;
67310;Laerm;65444;51.438;5.982;2023-03-23T00:46:44;33.05;31.21;36.25;;
67310;Laerm;65444;51.438;5.982;2023-03-23T00:46:54;37.47;32.03;43.85;;
67310;Laerm;65444;51.438;5.982;2023-03-23T00:47:06;46.11;33.69;60.52;;
67310;Laerm;65444;51.438;5.982;2023-03-23T00:47:18;39.30;34.10;49.05;;
67310;Laerm;65444;51.438;5.982;2023-03-23T00:47:29;39.55;32.17;55.67;;
67310;Laerm;65444;51.438;5.982;2023-03-23T00:47:40;34.89;32.51;41.37;;
67310;Laerm;65444;51.438;5.982;2023-03-23T00:47:56;34.55;32.36;43.15;;
67310;Laerm;65444;51.438;5.982;2023-03-23T00:48:12;36.91;32.88;49.19;;
67310;Laerm;65444;51.438;5.982;2023-03-23T00:48:24;45.95;38.54;49.97;;
67310;Laerm;65444;51.438;5.982;2023-03-23T00:48:35;51.14;44.51;56.03;;
67310;Laerm;65444;51.438;5.982;2023-03-23T00:48:46;51.85;48.45;56.02;;
67310;Laerm;65444;51.438;5.982;2023-03-23T00:48:57;50.98;48.46;54.44;;
67310;Laerm;65444;51.438;5.982;2023-03-23T00:49:09;49.68;46.65;55.57;;
67310;Laerm;65444;51.438;5.982;2023-03-23T00:49:22;41.82;36.58;48.79;;
67310;Laerm;65444;51.438;5.982;2023-03-23T00:49:34;37.02;32.60;48.55;;
67310;Laerm;65444;51.438;5.982;2023-03-23T00:49:45;36.53;32.23;49.48;;
67310;Laerm;65444;51.438;5.982;2023-03-23T00:49:56;35.40;30.64;47.90;;
67310;Laerm;65444;51.438;5.982;2023-03-23T00:50:07;34.18;30.78;44.31;;
67310;Laerm;65444;51.438;5.982;2023-03-23T00:50:17;33.68;31.24;41.24;;
67310;Laerm;65444;51.438;5.982;2023-03-23T00:50:28;34.35;30.71;46.55;;
67310;Laerm;65444;51.438;5.982;2023-03-23T00:50:39;34.08;31.67;36.75;;
67310;Laerm;65444;51.438;5.982;2023-03-23T00:50:50;34.58;30.21;50.37;;
67310;Laerm;65444;51.438;5.982;2023-03-23T00:51:01;39.44;30.32;55.48;;
67310;Laerm;65444;51.438;5.982;2023-03-23T00:51:16;44.78;30.76;60.42;;
67310;Laerm;65444;51.438;5.982;2023-03-23T00:51:27;49.56;33.03;63.29;;
67310;Laerm;65444;51.438;5.982;2023-03-23T00:51:38;35.73;32.41;48.02;;
67310;Laerm;65444;51.438;5.982;2023-03-23T00:51:49;37.36;31.92;50.79;;
67310;Laerm;65444;51.438;5.982;2023-03-23T00:52:00;51.76;33.24;66.54;;
67310;Laerm;65444;51.438;5.982;2023-03-23T00:52:11;38.50;33.98;48.44;;
67310;Laerm;65444;51.438;5.982;2023-03-23T00:52:22;51.93;33.28;70.29;;
67310;Laerm;65444;51.438;5.982;2023-03-23T00:52:34;36.31;32.00;46.06;;
67310;Laerm;65444;51.438;5.982;2023-03-23T00:52:45;46.92;35.68;60.56;;
67310;Laerm;65444;51.438;5.982;2023-03-23T00:52:55;50.91;34.81;67.33;;
67310;Laerm;65444;51.438;5.982;2023-03-23T00:53:07;38.11;33.78;47.61;;
67310;Laerm;65444;51.438;5.982;2023-03-23T00:53:18;40.65;36.05;54.72;;
67310;Laerm;65444;51.438;5.982;2023-03-23T00:53:28;44.84;37.29;59.25;;
67310;Laerm;65444;51.438;5.982;2023-03-23T00:53:39;37.95;32.59;52.99;;
67310;Laerm;65444;51.438;5.982;2023-03-23T00:53:50;35.27;32.03;51.39;;
67310;Laerm;65444;51.438;5.982;2023-03-23T00:54:01;38.97;32.61;50.97;;
67310;Laerm;65444;51.438;5.982;2023-03-23T00:54:11;48.00;31.72;67.27;;
67310;Laerm;65444;51.438;5.982;2023-03-23T00:54:25;33.70;31.34;39.13;;
67310;Laerm;65444;51.438;5.982;2023-03-23T00:54:36;33.94;31.11;43.87;;
67310;Laerm;65444;51.438;5.982;2023-03-23T00:54:47;35.83;32.17;39.33;;
67310;Laerm;65444;51.438;5.982;2023-03-23T00:54:58;37.17;33.45;45.95;;
67310;Laerm;65444;51.438;5.982;2023-03-23T00:55:08;38.44;32.62;49.00;;
67310;Laerm;65444;51.438;5.982;2023-03-23T00:55:19;34.84;31.43;42.29;;
67310;Laerm;65444;51.438;5.982;2023-03-23T00:55:30;32.58;30.42;42.45;;
67310;Laerm;65444;51.438;5.982;2023-03-23T00:55:41;37.82;30.15;54.37;;
67310;Laerm;65444;51.438;5.982;2023-03-23T00:55:57;48.42;32.14;63.08;;
67310;Laerm;65444;51.438;5.982;2023-03-23T00:56:08;37.81;30.64;50.86;;
67310;Laerm;65444;51.438;5.982;2023-03-23T00:56:19;32.14;29.66;43.21;;
67310;Laerm;65444;51.438;5.982;2023-03-23T00:56:30;32.69;30.53;35.96;;
67310;Laerm;65444;51.438;5.982;2023-03-23T00:56:41;40.16;34.36;48.92;;
67310;Laerm;65444;51.438;5.982;2023-03-23T00:56:51;39.29;32.77;51.39;;
67310;Laerm;65444;51.438;5.982;2023-03-23T00:57:02;36.92;33.33;50.95;;
67310;Laerm;65444;51.438;5.982;2023-03-23T00:57:13;35.07;33.05;44.73;;
67310;Laerm;65444;51.438;5.982;2023-03-23T00:57:23;34.97;32.08;41.37;;
67310;Laerm;65444;51.438;5.982;2023-03-23T00:57:36;33.42;31.24;39.84;;
67310;Laerm;65444;51.438;5.982;2023-03-23T00:57:46;33.84;31.91;39.10;;
67310;Laerm;65444;51.438;5.982;2023-03-23T00:57:58;36.30;32.72;43.62;;
67310;Laerm;65444;51.438;5.982;2023-03-23T00:58:09;38.63;33.71;50.26;;
67310;Laerm;65444;51.438;5.982;2023-03-23T00:58:20;39.77;35.67;49.27;;
67310;Laerm;65444;51.438;5.982;2023-03-23T00:58:30;38.91;34.02;47.79;;
67310;Laerm;65444;51.438;5.982;2023-03-23T00:58:41;39.43;34.74;54.53;;
67310;Laerm;65444;51.438;5.982;2023-03-23T00:58:52;37.37;31.10;49.95;;
67310;Laerm;65444;51.438;5.982;2023-03-23T00:59:02;33.37;31.05;37.50;;
67310;Laerm;65444;51.438;5.982;2023-03-23T00:59:13;37.74;32.35;50.51;;
67310;Laerm;65444;51.438;5.982;2023-03-23T00:59:24;37.15;30.66;52.81;;
67310;Laerm;65444;51.438;5.982;2023-03-23T00:59:36;40.00;31.24;52.08;;
67310;Laerm;65444;51.438;5.982;2023-03-23T00:59:47;33.88;30.30;43.50;;
67310;Laerm;65444;51.438;5.982;2023-03-23T00:59:57;33.75;30.85;40.23;;
67310;Laerm;65444;51.438;5.982;2023-03-23T01:00:08;38.60;33.00;55.61;;
67310;Laerm;65444;51.438;5.982;2023-03-23T01:00:21;40.39;32.59;54.05;;
67310;Laerm;65444;51.438;5.982;2023-03-23T01:00:32;33.31;31.06;36.97;;
67310;Laerm;65444;51.438;5.982;2023-03-23T01:00:43;39.35;32.08;49.26;;
67310;Laerm;65444;51.438;5.982;2023-03-23T01:00:57;52.94;36.35;66.71;;
67310;Laerm;65444;51.438;5.982;2023-03-23T01:01:08;39.87;32.16;55.99;;
67310;Laerm;65444;51.438;5.982;2023-03-23T01:01:18;51.02;33.06;64.13;;
67310;Laerm;65444;51.438;5.982;2023-03-23T01:01:30;42.47;34.46;57.83;;
67310;Laerm;65444;51.438;5.982;2023-03-23T01:01:40;35.75;32.39;44.59;;
67310;Laerm;65444;51.438;5.982;2023-03-23T01:01:51;35.53;31.88;48.90;;
67310;Laerm;65444;51.438;5.982;2023-03-23T01:02:01;32.97;30.64;35.40;;
67310;Laerm;65444;51.438;5.982;2023-03-23T01:02:29;35.89;31.80;51.06;;
67310;Laerm;65444;51.438;5.982;2023-03-23T01:02:40;46.87;32.55;59.98;;
67310;Laerm;65444;51.438;5.982;2023-03-23T01:02:54;42.38;31.56;58.70;;
67310;Laerm;65444;51.438;5.982;2023-03-23T01:03:07;34.79;30.90;44.85;;
67310;Laerm;65444;51.438;5.982;2023-03-23T01:03:18;33.04;30.64;36.86;;
67310;Laerm;65444;51.438;5.982;2023-03-23T01:03:29;33.77;31.46;40.81;;
67310;Laerm;65444;51.438;5.982;2023-03-23T01:03:40;39.65;31.12;52.59;;
67310;Laerm;65444;51.438;5.982;2023-03-23T01:03:53;33.80;30.73;42.98;;
67310;Laerm;65444;51.438;5.982;2023-03-23T01:04:10;35.00;30.66;44.42;;
67310;Laerm;65444;51.438;5.982;2023-03-23T01:04:23;33.89;31.65;40.37;;
67310;Laerm;65444;51.438;5.982;2023-03-23T01:04:34;36.22;33.26;44.08;;
67310;Laerm;65444;51.438;5.982;2023-03-23T01:04:47;42.03;34.94;56.16;;
67310;Laerm;65444;51.438;5.982;2023-03-23T01:05:02;37.54;31.64;53.42;;
67310;Laerm;65444;51.438;5.982;2023-03-23T01:05:13;40.91;32.17;54.02;;
67310;Laerm;65444;51.438;5.982;2023-03-23T01:05:25;51.19;34.77;67.65;;
67310;Laerm;65444;51.438;5.982;2023-03-23T01:05:42;36.76;33.19;49.38;;
67310;Laerm;65444;51.438;5.982;2023-03-23T01:05:52;41.20;31.89;53.49;;
67310;Laerm;65444;51.438;5.982;2023-03-23T01:06:05;36.64;32.45;52.20;;
67310;Laerm;65444;51.438;5.982;2023-03-23T01:06:15;41.84;34.43;56.24;;
67310;Laerm;65444;51.438;5.982;2023-03-23T01:06:36;39.88;31.82;59.46;;
67310;Laerm;65444;51.438;5.982;2023-03-23T01:06:50;34.80;31.81;46.25;;
67310;Laerm;65444;51.438;5.982;2023-03-23T01:07:02;34.89;30.49;44.59;;
67310;Laerm;65444;51.438;5.982;2023-03-23T01:07:12;39.35;31.13;54.97;;
67310;Laerm;65444;51.438;5.982;2023-03-23T01:07:24;34.88;30.49;47.16;;
67310;Laerm;65444;51.438;5.982;2023-03-23T01:07:35;37.29;30.54;48.85;;
67310;Laerm;65444;51.438;5.982;2023-03-23T01:07:46;32.31;30.56;34.50;;
67310;Laerm;65444;51.438;5.982;2023-03-23T01:08:04;32.44;29.63;41.47;;
67310;Laerm;65444;51.438;5.982;2023-03-23T01:08:15;35.15;30.99;44.56;;
67310;Laerm;65444;51.438;5.982;2023-03-23T01:08:26;36.95;32.57;51.42;;
67310;Laerm;65444;51.438;5.982;2023-03-23T01:08:39;37.97;33.22;47.84;;
67310;Laerm;65444;51.438;5.982;2023-03-23T01:08:55;35.10;32.92;38.18;;
67310;Laerm;65444;51.438;5.982;2023-03-23T01:09:15;33.64;31.78;40.26;;
67310;Laerm;65444;51.438;5.982;2023-03-23T01:09:32;34.65;32.06;38.26;;
67310;Laerm;65444;51.438;5.982;2023-03-23T01:09:43;34.20;31.19;38.15;;
67310;Laerm;65444;51.438;5.982;2023-03-23T01:09:55;33.58;31.43;39.04;;